sensor_id;sensor_type;location;lat;lon;timestamp;temperature;humidity
6627;DHT22;3349;49.830;8.748;2023-07-24T00:00:50;18.50;82.60
6627;DHT22;3349;49.830;8.748;2023-07-24T00:03:16;18.50;82.60
6627;DHT22;3349;49.830;8.748;2023-07-24T00:05:43;18.50;82.60
6627;DHT22;3349;49.830;8.748;2023-07-24T00:08:11;18.40;82.50
6627;DHT22;3349;49.830;8.748;2023-07-24T00:10:39;18.40;83.00
6627;DHT22;3349;49.830;8.748;2023-07-24T00:13:06;18.40;82.50
6627;DHT22;3349;49.830;8.748;2023-07-24T00:15:32;18.40;81.60
6627;DHT22;3349;49.830;8.748;2023-07-24T00:17:59;18.40;81.90
6627;DHT22;3349;49.830;8.748;2023-07-24T00:20:26;18.40;81.20
6627;DHT22;3349;49.830;8.748;2023-07-24T00:22:52;18.40;81.00
6627;DHT22;3349;49.830;8.748;2023-07-24T00:25:21;18.40;80.00
6627;DHT22;3349;49.830;8.748;2023-07-24T00:27:48;18.40;79.70
6627;DHT22;3349;49.830;8.748;2023-07-24T00:30:14;18.30;79.80
6627;DHT22;3349;49.830;8.748;2023-07-24T00:32:41;18.30;80.90
6627;DHT22;3349;49.830;8.748;2023-07-24T00:35:08;18.40;80.50
6627;DHT22;3349;49.830;8.748;2023-07-24T00:37:35;18.30;80.70
6627;DHT22;3349;49.830;8.748;2023-07-24T00:40:02;18.30;81.00
6627;DHT22;3349;49.830;8.748;2023-07-24T00:42:30;18.30;81.30
6627;DHT22;3349;49.830;8.748;2023-07-24T00:44:57;18.30;81.20
6627;DHT22;3349;49.830;8.748;2023-07-24T00:47:25;18.20;81.60
6627;DHT22;3349;49.830;8.748;2023-07-24T00:49:53;18.20;82.30
6627;DHT22;3349;49.830;8.748;2023-07-24T00:52:21;18.20;82.40
6627;DHT22;3349;49.830;8.748;2023-07-24T00:54:49;18.20;82.40
6627;DHT22;3349;49.830;8.748;2023-07-24T00:57:16;18.20;82.40
6627;DHT22;3349;49.830;8.748;2023-07-24T00:59:44;18.30;83.20
6627;DHT22;3349;49.830;8.748;2023-07-24T01:02:12;18.20;82.60
6627;DHT22;3349;49.830;8.748;2023-07-24T01:04:39;18.20;82.40
6627;DHT22;3349;49.830;8.748;2023-07-24T01:07:06;18.30;82.40
6627;DHT22;3349;49.830;8.748;2023-07-24T01:09:32;18.40;80.10
6627;DHT22;3349;49.830;8.748;2023-07-24T01:12:02;18.40;80.20
6627;DHT22;3349;49.830;8.748;2023-07-24T01:14:36;18.20;80.60
6627;DHT22;3349;49.830;8.748;2023-07-24T01:17:07;18.30;81.10
6627;DHT22;3349;49.830;8.748;2023-07-24T01:19:37;18.30;81.60
6627;DHT22;3349;49.830;8.748;2023-07-24T01:22:12;18.20;82.20
6627;DHT22;3349;49.830;8.748;2023-07-24T01:25:00;18.20;82.60
6627;DHT22;3349;49.830;8.748;2023-07-24T01:27:28;18.20;82.80
6627;DHT22;3349;49.830;8.748;2023-07-24T01:29:55;18.10;83.50
6627;DHT22;3349;49.830;8.748;2023-07-24T01:32:22;18.10;83.80
6627;DHT22;3349;49.830;8.748;2023-07-24T01:34:49;18.00;83.30
6627;DHT22;3349;49.830;8.748;2023-07-24T01:37:17;18.00;84.10
6627;DHT22;3349;49.830;8.748;2023-07-24T01:39:45;18.00;83.90
6627;DHT22;3349;49.830;8.748;2023-07-24T01:42:12;18.00;84.60
6627;DHT22;3349;49.830;8.748;2023-07-24T01:44:40;18.00;84.10
6627;DHT22;3349;49.830;8.748;2023-07-24T01:47:07;17.90;84.10
6627;DHT22;3349;49.830;8.748;2023-07-24T01:49:34;17.90;84.10
6627;DHT22;3349;49.830;8.748;2023-07-24T01:52:01;17.90;83.90
6627;DHT22;3349;49.830;8.748;2023-07-24T01:54:28;17.90;83.50
6627;DHT22;3349;49.830;8.748;2023-07-24T01:56:55;17.80;84.40
6627;DHT22;3349;49.830;8.748;2023-07-24T01:59:21;17.80;84.40
6627;DHT22;3349;49.830;8.748;2023-07-24T02:01:49;17.80;84.90
6627;DHT22;3349;49.830;8.748;2023-07-24T02:04:16;17.80;84.50
6627;DHT22;3349;49.830;8.748;2023-07-24T02:06:43;17.70;85.20
6627;DHT22;3349;49.830;8.748;2023-07-24T02:09:10;17.70;85.90
6627;DHT22;3349;49.830;8.748;2023-07-24T02:11:37;17.70;86.10
6627;DHT22;3349;49.830;8.748;2023-07-24T02:14:03;17.80;85.30
6627;DHT22;3349;49.830;8.748;2023-07-24T02:16:30;17.80;81.80
6627;DHT22;3349;49.830;8.748;2023-07-24T02:18:58;18.00;80.30
6627;DHT22;3349;49.830;8.748;2023-07-24T02:21:25;18.10;79.00
6627;DHT22;3349;49.830;8.748;2023-07-24T02:23:52;18.20;77.80
6627;DHT22;3349;49.830;8.748;2023-07-24T02:26:18;18.30;75.90
6627;DHT22;3349;49.830;8.748;2023-07-24T02:28:45;18.40;72.90
6627;DHT22;3349;49.830;8.748;2023-07-24T02:31:12;18.40;72.30
6627;DHT22;3349;49.830;8.748;2023-07-24T02:33:38;18.40;72.40
6627;DHT22;3349;49.830;8.748;2023-07-24T02:36:07;18.50;74.30
6627;DHT22;3349;49.830;8.748;2023-07-24T02:38:34;18.40;73.50
6627;DHT22;3349;49.830;8.748;2023-07-24T02:41:00;18.40;73.50
6627;DHT22;3349;49.830;8.748;2023-07-24T02:43:27;18.30;74.00
6627;DHT22;3349;49.830;8.748;2023-07-24T02:45:54;18.20;74.40
6627;DHT22;3349;49.830;8.748;2023-07-24T02:48:20;18.00;75.20
6627;DHT22;3349;49.830;8.748;2023-07-24T02:50:47;18.00;76.60
6627;DHT22;3349;49.830;8.748;2023-07-24T02:53:16;17.90;76.40
6627;DHT22;3349;49.830;8.748;2023-07-24T02:55:43;17.80;76.80
6627;DHT22;3349;49.830;8.748;2023-07-24T02:58:10;17.70;77.30
6627;DHT22;3349;49.830;8.748;2023-07-24T03:00:37;17.60;77.90
6627;DHT22;3349;49.830;8.748;2023-07-24T03:03:04;17.60;79.30
6627;DHT22;3349;49.830;8.748;2023-07-24T03:05:31;17.50;79.60
6627;DHT22;3349;49.830;8.748;2023-07-24T03:07:57;17.40;79.70
6627;DHT22;3349;49.830;8.748;2023-07-24T03:10:25;17.40;79.50
6627;DHT22;3349;49.830;8.748;2023-07-24T03:12:52;17.30;80.00
6627;DHT22;3349;49.830;8.748;2023-07-24T03:15:19;17.20;80.50
6627;DHT22;3349;49.830;8.748;2023-07-24T03:17:46;17.20;81.30
6627;DHT22;3349;49.830;8.748;2023-07-24T03:20:14;17.10;81.80
6627;DHT22;3349;49.830;8.748;2023-07-24T03:22:42;17.10;82.20
6627;DHT22;3349;49.830;8.748;2023-07-24T03:25:09;17.10;83.40
6627;DHT22;3349;49.830;8.748;2023-07-24T03:27:37;17.00;83.40
6627;DHT22;3349;49.830;8.748;2023-07-24T03:30:06;16.90;84.00
6627;DHT22;3349;49.830;8.748;2023-07-24T03:32:34;16.90;85.40
6627;DHT22;3349;49.830;8.748;2023-07-24T03:35:01;16.80;85.30
6627;DHT22;3349;49.830;8.748;2023-07-24T03:37:27;16.80;86.00
6627;DHT22;3349;49.830;8.748;2023-07-24T03:39:54;16.80;88.00
6627;DHT22;3349;49.830;8.748;2023-07-24T03:42:25;16.80;87.50
6627;DHT22;3349;49.830;8.748;2023-07-24T03:44:54;16.80;87.30
6627;DHT22;3349;49.830;8.748;2023-07-24T03:47:21;16.80;87.50
6627;DHT22;3349;49.830;8.748;2023-07-24T03:49:48;16.90;88.40
6627;DHT22;3349;49.830;8.748;2023-07-24T03:52:15;17.00;88.20
6627;DHT22;3349;49.830;8.748;2023-07-24T03:54:42;17.00;88.00
6627;DHT22;3349;49.830;8.748;2023-07-24T03:57:08;17.10;87.40
6627;DHT22;3349;49.830;8.748;2023-07-24T03:59:35;17.30;85.30
6627;DHT22;3349;49.830;8.748;2023-07-24T04:02:04;17.40;84.40
6627;DHT22;3349;49.830;8.748;2023-07-24T04:04:31;17.40;83.80
6627;DHT22;3349;49.830;8.748;2023-07-24T04:06:58;17.40;82.40
6627;DHT22;3349;49.830;8.748;2023-07-24T04:09:25;17.50;82.90
6627;DHT22;3349;49.830;8.748;2023-07-24T04:11:52;17.50;82.60
6627;DHT22;3349;49.830;8.748;2023-07-24T04:14:18;17.50;83.20
6627;DHT22;3349;49.830;8.748;2023-07-24T04:16:45;17.50;83.50
6627;DHT22;3349;49.830;8.748;2023-07-24T04:19:13;17.60;81.70
6627;DHT22;3349;49.830;8.748;2023-07-24T04:21:40;17.70;80.20
6627;DHT22;3349;49.830;8.748;2023-07-24T04:24:07;17.70;79.10
6627;DHT22;3349;49.830;8.748;2023-07-24T04:26:33;17.80;78.50
6627;DHT22;3349;49.830;8.748;2023-07-24T04:29:00;17.90;78.10
6627;DHT22;3349;49.830;8.748;2023-07-24T04:31:27;18.00;77.50
6627;DHT22;3349;49.830;8.748;2023-07-24T04:33:53;18.10;75.20
6627;DHT22;3349;49.830;8.748;2023-07-24T04:36:21;18.10;73.20
6627;DHT22;3349;49.830;8.748;2023-07-24T04:38:48;18.30;72.80
6627;DHT22;3349;49.830;8.748;2023-07-24T04:41:15;18.30;73.60
6627;DHT22;3349;49.830;8.748;2023-07-24T04:43:42;18.40;74.10
6627;DHT22;3349;49.830;8.748;2023-07-24T04:46:09;18.40;73.80
6627;DHT22;3349;49.830;8.748;2023-07-24T04:48:35;18.50;74.40
6627;DHT22;3349;49.830;8.748;2023-07-24T04:51:02;18.50;75.30
6627;DHT22;3349;49.830;8.748;2023-07-24T04:53:30;18.60;76.60
6627;DHT22;3349;49.830;8.748;2023-07-24T04:55:57;18.60;78.20
6627;DHT22;3349;49.830;8.748;2023-07-24T04:58:24;18.70;77.50
6627;DHT22;3349;49.830;8.748;2023-07-24T05:00:50;18.70;77.60
6627;DHT22;3349;49.830;8.748;2023-07-24T05:03:17;18.70;77.40
6627;DHT22;3349;49.830;8.748;2023-07-24T05:05:48;18.70;75.10
6627;DHT22;3349;49.830;8.748;2023-07-24T05:08:14;18.70;74.20
6627;DHT22;3349;49.830;8.748;2023-07-24T05:10:42;18.80;73.00
6627;DHT22;3349;49.830;8.748;2023-07-24T05:13:09;18.90;72.70
6627;DHT22;3349;49.830;8.748;2023-07-24T05:15:36;18.90;73.50
6627;DHT22;3349;49.830;8.748;2023-07-24T05:18:02;19.00;73.80
6627;DHT22;3349;49.830;8.748;2023-07-24T05:20:29;19.00;72.50
6627;DHT22;3349;49.830;8.748;2023-07-24T05:22:56;19.10;73.40
6627;DHT22;3349;49.830;8.748;2023-07-24T05:25:22;19.20;74.20
6627;DHT22;3349;49.830;8.748;2023-07-24T05:27:51;19.20;74.30
6627;DHT22;3349;49.830;8.748;2023-07-24T05:30:18;19.30;74.50
6627;DHT22;3349;49.830;8.748;2023-07-24T05:32:44;19.40;75.90
6627;DHT22;3349;49.830;8.748;2023-07-24T05:35:11;19.40;75.70
6627;DHT22;3349;49.830;8.748;2023-07-24T05:37:38;19.50;75.20
6627;DHT22;3349;49.830;8.748;2023-07-24T05:40:06;19.50;73.50
6627;DHT22;3349;49.830;8.748;2023-07-24T05:42:32;19.50;70.10
6627;DHT22;3349;49.830;8.748;2023-07-24T05:45:06;19.60;69.30
6627;DHT22;3349;49.830;8.748;2023-07-24T05:47:34;19.70;68.70
6627;DHT22;3349;49.830;8.748;2023-07-24T05:50:01;19.70;68.10
6627;DHT22;3349;49.830;8.748;2023-07-24T05:52:27;19.80;69.80
6627;DHT22;3349;49.830;8.748;2023-07-24T05:54:55;19.90;72.20
6627;DHT22;3349;49.830;8.748;2023-07-24T05:57:21;20.00;73.40
6627;DHT22;3349;49.830;8.748;2023-07-24T05:59:48;20.10;74.40
6627;DHT22;3349;49.830;8.748;2023-07-24T06:02:18;20.10;70.60
6627;DHT22;3349;49.830;8.748;2023-07-24T06:04:44;20.20;69.60
6627;DHT22;3349;49.830;8.748;2023-07-24T06:07:12;20.30;68.50
6627;DHT22;3349;49.830;8.748;2023-07-24T06:09:38;20.30;68.30
6627;DHT22;3349;49.830;8.748;2023-07-24T06:12:06;20.30;67.60
6627;DHT22;3349;49.830;8.748;2023-07-24T06:14:32;20.30;67.50
6627;DHT22;3349;49.830;8.748;2023-07-24T06:16:59;20.40;66.20
6627;DHT22;3349;49.830;8.748;2023-07-24T06:19:27;20.40;67.50
6627;DHT22;3349;49.830;8.748;2023-07-24T06:21:54;20.50;68.70
6627;DHT22;3349;49.830;8.748;2023-07-24T06:24:20;20.70;70.10
6627;DHT22;3349;49.830;8.748;2023-07-24T06:26:49;20.70;67.50
6627;DHT22;3349;49.830;8.748;2023-07-24T06:29:16;20.80;65.70
6627;DHT22;3349;49.830;8.748;2023-07-24T06:31:42;20.80;65.10
6627;DHT22;3349;49.830;8.748;2023-07-24T06:34:09;20.90;65.10
6627;DHT22;3349;49.830;8.748;2023-07-24T06:36:37;21.00;64.70
6627;DHT22;3349;49.830;8.748;2023-07-24T06:39:04;21.00;64.30
6627;DHT22;3349;49.830;8.748;2023-07-24T06:41:30;21.00;64.10
6627;DHT22;3349;49.830;8.748;2023-07-24T06:43:57;21.00;63.90
6627;DHT22;3349;49.830;8.748;2023-07-24T06:46:24;21.20;64.60
6627;DHT22;3349;49.830;8.748;2023-07-24T06:48:51;21.40;65.30
6627;DHT22;3349;49.830;8.748;2023-07-24T06:51:17;21.40;62.70
6627;DHT22;3349;49.830;8.748;2023-07-24T06:53:45;21.40;62.70
6627;DHT22;3349;49.830;8.748;2023-07-24T06:56:12;21.60;62.70
6627;DHT22;3349;49.830;8.748;2023-07-24T06:58:39;21.70;62.20
6627;DHT22;3349;49.830;8.748;2023-07-24T07:01:06;21.80;62.60
6627;DHT22;3349;49.830;8.748;2023-07-24T07:03:33;21.90;61.80
6627;DHT22;3349;49.830;8.748;2023-07-24T07:06:01;22.00;60.30
6627;DHT22;3349;49.830;8.748;2023-07-24T07:08:28;22.10;60.30
6627;DHT22;3349;49.830;8.748;2023-07-24T07:10:57;22.30;59.50
6627;DHT22;3349;49.830;8.748;2023-07-24T07:13:24;22.50;58.00
6627;DHT22;3349;49.830;8.748;2023-07-24T07:15:50;22.60;57.30
6627;DHT22;3349;49.830;8.748;2023-07-24T07:18:17;22.70;56.30
6627;DHT22;3349;49.830;8.748;2023-07-24T07:20:47;22.70;56.00
6627;DHT22;3349;49.830;8.748;2023-07-24T07:23:14;22.70;56.80
6627;DHT22;3349;49.830;8.748;2023-07-24T07:25:41;22.80;57.00
6627;DHT22;3349;49.830;8.748;2023-07-24T07:28:11;22.90;56.50
6627;DHT22;3349;49.830;8.748;2023-07-24T07:30:39;23.00;55.80
6627;DHT22;3349;49.830;8.748;2023-07-24T07:33:06;23.00;55.60
6627;DHT22;3349;49.830;8.748;2023-07-24T07:35:33;23.10;55.00
6627;DHT22;3349;49.830;8.748;2023-07-24T07:38:00;23.20;54.90
6627;DHT22;3349;49.830;8.748;2023-07-24T07:40:27;23.10;54.30
6627;DHT22;3349;49.830;8.748;2023-07-24T07:42:54;23.20;54.20
6627;DHT22;3349;49.830;8.748;2023-07-24T07:45:23;23.30;53.90
6627;DHT22;3349;49.830;8.748;2023-07-24T07:47:50;23.50;54.00
6627;DHT22;3349;49.830;8.748;2023-07-24T07:50:18;23.60;53.10
6627;DHT22;3349;49.830;8.748;2023-07-24T07:52:45;23.70;53.20
6627;DHT22;3349;49.830;8.748;2023-07-24T07:55:12;23.90;52.90
6627;DHT22;3349;49.830;8.748;2023-07-24T07:57:39;24.30;52.20
6627;DHT22;3349;49.830;8.748;2023-07-24T08:00:06;24.70;50.60
6627;DHT22;3349;49.830;8.748;2023-07-24T08:02:35;24.90;49.50
6627;DHT22;3349;49.830;8.748;2023-07-24T08:05:06;25.10;49.30
6627;DHT22;3349;49.830;8.748;2023-07-24T08:07:32;25.30;48.40
6627;DHT22;3349;49.830;8.748;2023-07-24T08:09:59;25.20;48.30
6627;DHT22;3349;49.830;8.748;2023-07-24T08:12:26;25.20;48.40
6627;DHT22;3349;49.830;8.748;2023-07-24T08:14:53;25.00;48.70
6627;DHT22;3349;49.830;8.748;2023-07-24T08:17:20;24.80;49.10
6627;DHT22;3349;49.830;8.748;2023-07-24T08:19:48;24.50;50.10
6627;DHT22;3349;49.830;8.748;2023-07-24T08:22:15;24.30;50.30
6627;DHT22;3349;49.830;8.748;2023-07-24T08:24:42;24.30;50.40
6627;DHT22;3349;49.830;8.748;2023-07-24T08:27:10;24.30;50.70
6627;DHT22;3349;49.830;8.748;2023-07-24T08:29:37;24.20;50.80
6627;DHT22;3349;49.830;8.748;2023-07-24T08:32:05;24.10;51.10
6627;DHT22;3349;49.830;8.748;2023-07-24T08:34:32;24.10;51.60
6627;DHT22;3349;49.830;8.748;2023-07-24T08:37:00;24.10;51.40
6627;DHT22;3349;49.830;8.748;2023-07-24T08:39:27;24.10;51.30
6627;DHT22;3349;49.830;8.748;2023-07-24T08:41:53;24.10;52.10
6627;DHT22;3349;49.830;8.748;2023-07-24T08:44:20;23.90;51.90
6627;DHT22;3349;49.830;8.748;2023-07-24T08:46:50;23.80;51.90
6627;DHT22;3349;49.830;8.748;2023-07-24T08:49:17;23.80;52.80
6627;DHT22;3349;49.830;8.748;2023-07-24T08:51:45;23.90;53.10
6627;DHT22;3349;49.830;8.748;2023-07-24T08:54:14;23.90;53.20
6627;DHT22;3349;49.830;8.748;2023-07-24T08:56:41;24.00;53.00
6627;DHT22;3349;49.830;8.748;2023-07-24T08:59:12;24.00;53.10
6627;DHT22;3349;49.830;8.748;2023-07-24T09:01:39;24.00;53.00
6627;DHT22;3349;49.830;8.748;2023-07-24T09:04:06;24.00;53.20
6627;DHT22;3349;49.830;8.748;2023-07-24T09:06:32;24.00;53.80
6627;DHT22;3349;49.830;8.748;2023-07-24T09:08:59;23.90;54.50
6627;DHT22;3349;49.830;8.748;2023-07-24T09:11:27;23.80;55.80
6627;DHT22;3349;49.830;8.748;2023-07-24T09:13:54;23.90;57.60
6627;DHT22;3349;49.830;8.748;2023-07-24T09:16:22;23.90;57.90
6627;DHT22;3349;49.830;8.748;2023-07-24T09:18:49;24.10;57.80
6627;DHT22;3349;49.830;8.748;2023-07-24T09:21:27;24.60;59.20
6627;DHT22;3349;49.830;8.748;2023-07-24T09:23:54;24.80;55.70
6627;DHT22;3349;49.830;8.748;2023-07-24T09:26:20;25.20;56.00
6627;DHT22;3349;49.830;8.748;2023-07-24T09:28:52;25.70;52.10
6627;DHT22;3349;49.830;8.748;2023-07-24T09:31:19;25.70;52.40
6627;DHT22;3349;49.830;8.748;2023-07-24T09:33:46;25.30;52.00
6627;DHT22;3349;49.830;8.748;2023-07-24T09:36:13;24.90;52.80
6627;DHT22;3349;49.830;8.748;2023-07-24T09:38:40;24.60;53.80
6627;DHT22;3349;49.830;8.748;2023-07-24T09:41:07;24.30;54.50
6627;DHT22;3349;49.830;8.748;2023-07-24T09:43:34;24.10;55.50
6627;DHT22;3349;49.830;8.748;2023-07-24T09:46:04;23.90;60.10
6627;DHT22;3349;49.830;8.748;2023-07-24T09:48:31;23.80;64.90
6627;DHT22;3349;49.830;8.748;2023-07-24T09:50:59;23.60;68.90
6627;DHT22;3349;49.830;8.748;2023-07-24T09:53:31;23.50;67.60
6627;DHT22;3349;49.830;8.748;2023-07-24T09:56:00;23.50;69.40
6627;DHT22;3349;49.830;8.748;2023-07-24T09:58:28;23.50;66.00
6627;DHT22;3349;49.830;8.748;2023-07-24T10:00:56;23.50;66.50
6627;DHT22;3349;49.830;8.748;2023-07-24T10:03:25;23.60;65.50
6627;DHT22;3349;49.830;8.748;2023-07-24T10:05:52;23.60;64.70
6627;DHT22;3349;49.830;8.748;2023-07-24T10:08:20;23.60;62.10
6627;DHT22;3349;49.830;8.748;2023-07-24T10:10:46;23.60;63.30
6627;DHT22;3349;49.830;8.748;2023-07-24T10:13:17;23.50;63.80
6627;DHT22;3349;49.830;8.748;2023-07-24T10:15:46;23.50;63.90
6627;DHT22;3349;49.830;8.748;2023-07-24T10:18:15;23.60;64.00
6627;DHT22;3349;49.830;8.748;2023-07-24T10:20:43;23.50;66.30
6627;DHT22;3349;49.830;8.748;2023-07-24T10:23:11;23.50;66.50
6627;DHT22;3349;49.830;8.748;2023-07-24T10:25:44;23.40;66.30
6627;DHT22;3349;49.830;8.748;2023-07-24T10:28:12;23.30;69.40
6627;DHT22;3349;49.830;8.748;2023-07-24T10:30:42;23.20;69.80
6627;DHT22;3349;49.830;8.748;2023-07-24T10:33:10;23.10;72.80
6627;DHT22;3349;49.830;8.748;2023-07-24T10:35:39;23.10;71.30
6627;DHT22;3349;49.830;8.748;2023-07-24T10:38:07;23.00;68.80
6627;DHT22;3349;49.830;8.748;2023-07-24T10:40:35;23.00;71.10
6627;DHT22;3349;49.830;8.748;2023-07-24T10:43:05;23.10;68.90
6627;DHT22;3349;49.830;8.748;2023-07-24T10:45:39;23.10;68.90
6627;DHT22;3349;49.830;8.748;2023-07-24T10:48:06;23.20;67.60
6627;DHT22;3349;49.830;8.748;2023-07-24T10:50:37;23.40;67.80
6627;DHT22;3349;49.830;8.748;2023-07-24T10:53:04;23.60;65.70
6627;DHT22;3349;49.830;8.748;2023-07-24T10:55:32;24.00;63.70
6627;DHT22;3349;49.830;8.748;2023-07-24T10:57:59;24.20;60.50
6627;DHT22;3349;49.830;8.748;2023-07-24T11:00:26;24.50;60.80
6627;DHT22;3349;49.830;8.748;2023-07-24T11:02:53;24.80;58.50
6627;DHT22;3349;49.830;8.748;2023-07-24T11:05:20;25.20;56.90
6627;DHT22;3349;49.830;8.748;2023-07-24T11:07:47;25.60;55.70
6627;DHT22;3349;49.830;8.748;2023-07-24T11:10:15;26.00;53.70
6627;DHT22;3349;49.830;8.748;2023-07-24T11:12:43;26.20;53.00
6627;DHT22;3349;49.830;8.748;2023-07-24T11:15:11;26.20;51.40
6627;DHT22;3349;49.830;8.748;2023-07-24T11:17:40;26.50;51.70
6627;DHT22;3349;49.830;8.748;2023-07-24T11:20:09;26.70;51.00
6627;DHT22;3349;49.830;8.748;2023-07-24T11:22:37;26.70;50.70
6627;DHT22;3349;49.830;8.748;2023-07-24T11:25:05;26.70;50.80
6627;DHT22;3349;49.830;8.748;2023-07-24T11:27:32;26.70;50.20
6627;DHT22;3349;49.830;8.748;2023-07-24T11:30:00;26.50;50.30
6627;DHT22;3349;49.830;8.748;2023-07-24T11:32:27;26.30;50.80
6627;DHT22;3349;49.830;8.748;2023-07-24T11:34:54;26.30;50.40
6627;DHT22;3349;49.830;8.748;2023-07-24T11:37:21;26.10;50.70
6627;DHT22;3349;49.830;8.748;2023-07-24T11:39:57;26.20;50.50
6627;DHT22;3349;49.830;8.748;2023-07-24T11:42:25;26.30;50.00
6627;DHT22;3349;49.830;8.748;2023-07-24T11:44:52;26.30;49.70
6627;DHT22;3349;49.830;8.748;2023-07-24T11:47:21;26.40;49.90
6627;DHT22;3349;49.830;8.748;2023-07-24T11:49:57;26.80;49.10
6627;DHT22;3349;49.830;8.748;2023-07-24T11:52:24;27.40;47.60
6627;DHT22;3349;49.830;8.748;2023-07-24T11:54:57;27.50;45.50
6627;DHT22;3349;49.830;8.748;2023-07-24T11:57:27;27.80;45.40
6627;DHT22;3349;49.830;8.748;2023-07-24T11:59:54;27.70;45.30
6627;DHT22;3349;49.830;8.748;2023-07-24T12:02:25;27.70;46.00
6627;DHT22;3349;49.830;8.748;2023-07-24T12:04:56;27.90;45.60
6627;DHT22;3349;49.830;8.748;2023-07-24T12:07:29;27.70;46.10
6627;DHT22;3349;49.830;8.748;2023-07-24T12:09:56;27.70;46.10
6627;DHT22;3349;49.830;8.748;2023-07-24T12:12:23;28.20;44.70
6627;DHT22;3349;49.830;8.748;2023-07-24T12:14:50;28.00;44.10
6627;DHT22;3349;49.830;8.748;2023-07-24T12:17:18;28.20;44.00
6627;DHT22;3349;49.830;8.748;2023-07-24T12:19:46;28.20;43.50
6627;DHT22;3349;49.830;8.748;2023-07-24T12:22:13;27.80;44.40
6627;DHT22;3349;49.830;8.748;2023-07-24T12:24:40;27.40;45.50
6627;DHT22;3349;49.830;8.748;2023-07-24T12:27:07;26.90;46.70
6627;DHT22;3349;49.830;8.748;2023-07-24T12:29:34;27.30;46.60
6627;DHT22;3349;49.830;8.748;2023-07-24T12:32:00;27.60;46.00
6627;DHT22;3349;49.830;8.748;2023-07-24T12:34:27;27.70;45.00
6627;DHT22;3349;49.830;8.748;2023-07-24T12:36:55;28.00;44.70
6627;DHT22;3349;49.830;8.748;2023-07-24T12:39:22;28.40;44.40
6627;DHT22;3349;49.830;8.748;2023-07-24T12:41:48;28.30;43.80
6627;DHT22;3349;49.830;8.748;2023-07-24T12:44:15;28.40;44.40
6627;DHT22;3349;49.830;8.748;2023-07-24T12:46:42;28.60;43.60
6627;DHT22;3349;49.830;8.748;2023-07-24T12:49:08;28.30;44.30
6627;DHT22;3349;49.830;8.748;2023-07-24T12:51:35;28.80;44.70
6627;DHT22;3349;49.830;8.748;2023-07-24T12:54:03;29.40;43.50
6627;DHT22;3349;49.830;8.748;2023-07-24T12:56:30;29.90;41.10
6627;DHT22;3349;49.830;8.748;2023-07-24T12:58:57;30.30;40.40
6627;DHT22;3349;49.830;8.748;2023-07-24T13:01:23;31.50;38.70
6627;DHT22;3349;49.830;8.748;2023-07-24T13:03:50;31.70;36.20
6627;DHT22;3349;49.830;8.748;2023-07-24T13:06:17;31.50;36.80
6627;DHT22;3349;49.830;8.748;2023-07-24T13:08:44;30.50;37.50
6627;DHT22;3349;49.830;8.748;2023-07-24T13:11:12;29.80;38.70
6627;DHT22;3349;49.830;8.748;2023-07-24T13:13:39;29.30;40.60
6627;DHT22;3349;49.830;8.748;2023-07-24T13:16:05;29.00;41.40
6627;DHT22;3349;49.830;8.748;2023-07-24T13:18:32;29.40;41.40
6627;DHT22;3349;49.830;8.748;2023-07-24T13:20:59;29.80;38.70
6627;DHT22;3349;49.830;8.748;2023-07-24T13:23:26;30.30;38.40
6627;DHT22;3349;49.830;8.748;2023-07-24T13:25:52;30.50;37.50
6627;DHT22;3349;49.830;8.748;2023-07-24T13:28:20;30.50;37.80
6627;DHT22;3349;49.830;8.748;2023-07-24T13:30:47;30.50;38.30
6627;DHT22;3349;49.830;8.748;2023-07-24T13:33:14;30.10;38.10
6627;DHT22;3349;49.830;8.748;2023-07-24T13:35:41;29.60;40.20
6627;DHT22;3349;49.830;8.748;2023-07-24T13:38:07;28.80;41.90
6627;DHT22;3349;49.830;8.748;2023-07-24T13:40:34;28.00;44.60
6627;DHT22;3349;49.830;8.748;2023-07-24T13:43:01;27.60;46.00
6627;DHT22;3349;49.830;8.748;2023-07-24T13:45:30;27.30;48.40
6627;DHT22;3349;49.830;8.748;2023-07-24T13:47:57;26.80;49.80
6627;DHT22;3349;49.830;8.748;2023-07-24T13:50:24;26.40;48.60
6627;DHT22;3349;49.830;8.748;2023-07-24T13:52:51;26.20;48.40
6627;DHT22;3349;49.830;8.748;2023-07-24T13:55:17;25.90;50.10
6627;DHT22;3349;49.830;8.748;2023-07-24T13:57:44;25.40;53.70
6627;DHT22;3349;49.830;8.748;2023-07-24T14:00:12;25.20;63.20
6627;DHT22;3349;49.830;8.748;2023-07-24T14:02:40;24.80;66.90
6627;DHT22;3349;49.830;8.748;2023-07-24T14:05:08;24.40;70.90
6627;DHT22;3349;49.830;8.748;2023-07-24T14:07:35;24.10;74.60
6627;DHT22;3349;49.830;8.748;2023-07-24T14:10:01;23.90;79.00
6627;DHT22;3349;49.830;8.748;2023-07-24T14:12:28;23.90;79.50
6627;DHT22;3349;49.830;8.748;2023-07-24T14:14:55;23.80;80.60
6627;DHT22;3349;49.830;8.748;2023-07-24T14:17:21;23.70;77.70
6627;DHT22;3349;49.830;8.748;2023-07-24T14:19:49;23.60;77.80
6627;DHT22;3349;49.830;8.748;2023-07-24T14:22:16;23.50;75.50
6627;DHT22;3349;49.830;8.748;2023-07-24T14:24:43;23.50;80.60
6627;DHT22;3349;49.830;8.748;2023-07-24T14:27:11;23.40;83.80
6627;DHT22;3349;49.830;8.748;2023-07-24T14:29:38;23.30;80.10
6627;DHT22;3349;49.830;8.748;2023-07-24T14:32:06;23.10;85.50
6627;DHT22;3349;49.830;8.748;2023-07-24T14:34:33;23.00;89.80
6627;DHT22;3349;49.830;8.748;2023-07-24T14:37:01;23.00;90.20
6627;DHT22;3349;49.830;8.748;2023-07-24T14:39:28;23.00;90.10
6627;DHT22;3349;49.830;8.748;2023-07-24T14:41:54;23.00;88.50
6627;DHT22;3349;49.830;8.748;2023-07-24T14:44:21;23.20;89.20
6627;DHT22;3349;49.830;8.748;2023-07-24T14:46:48;24.00;81.80
6627;DHT22;3349;49.830;8.748;2023-07-24T14:49:14;24.80;74.60
6627;DHT22;3349;49.830;8.748;2023-07-24T14:51:41;25.50;66.50
6627;DHT22;3349;49.830;8.748;2023-07-24T14:54:09;25.80;61.80
6627;DHT22;3349;49.830;8.748;2023-07-24T14:56:36;25.90;60.30
6627;DHT22;3349;49.830;8.748;2023-07-24T14:59:02;25.60;60.50
6627;DHT22;3349;49.830;8.748;2023-07-24T15:01:29;25.80;60.20
6627;DHT22;3349;49.830;8.748;2023-07-24T15:03:56;25.90;58.70
6627;DHT22;3349;49.830;8.748;2023-07-24T15:06:23;25.70;59.10
6627;DHT22;3349;49.830;8.748;2023-07-24T15:08:50;25.50;59.70
6627;DHT22;3349;49.830;8.748;2023-07-24T15:11:20;25.50;60.50
6627;DHT22;3349;49.830;8.748;2023-07-24T15:13:48;25.60;58.70
6627;DHT22;3349;49.830;8.748;2023-07-24T15:16:15;25.60;57.80
6627;DHT22;3349;49.830;8.748;2023-07-24T15:18:41;25.70;58.20
6627;DHT22;3349;49.830;8.748;2023-07-24T15:21:08;25.90;57.50
6627;DHT22;3349;49.830;8.748;2023-07-24T15:23:35;26.10;56.10
6627;DHT22;3349;49.830;8.748;2023-07-24T15:26:02;26.50;54.40
6627;DHT22;3349;49.830;8.748;2023-07-24T15:28:30;27.00;54.10
6627;DHT22;3349;49.830;8.748;2023-07-24T15:30:57;27.40;52.90
6627;DHT22;3349;49.830;8.748;2023-07-24T15:33:23;27.50;51.00
6627;DHT22;3349;49.830;8.748;2023-07-24T15:35:50;27.60;51.00
6627;DHT22;3349;49.830;8.748;2023-07-24T15:38:17;27.80;48.70
6627;DHT22;3349;49.830;8.748;2023-07-24T15:40:43;27.60;49.70
6627;DHT22;3349;49.830;8.748;2023-07-24T15:43:10;27.70;49.30
6627;DHT22;3349;49.830;8.748;2023-07-24T15:45:38;27.50;49.00
6627;DHT22;3349;49.830;8.748;2023-07-24T15:48:05;27.50;49.50
6627;DHT22;3349;49.830;8.748;2023-07-24T15:50:32;27.60;50.10
6627;DHT22;3349;49.830;8.748;2023-07-24T15:52:58;27.50;50.30
6627;DHT22;3349;49.830;8.748;2023-07-24T15:55:25;27.60;50.30
6627;DHT22;3349;49.830;8.748;2023-07-24T15:57:52;27.70;49.70
6627;DHT22;3349;49.830;8.748;2023-07-24T16:00:18;27.90;49.70
6627;DHT22;3349;49.830;8.748;2023-07-24T16:02:47;28.00;49.20